createdAt,value
2023-03-24T00:01:37.147Z,100453.00
2023-03-24T00:04:42.615Z,100452.13
2023-03-24T00:07:46.724Z,100445.97
2023-03-24T00:10:53.212Z,100450.34
2023-03-24T00:13:58.461Z,100443.31
2023-03-24T00:17:01.587Z,100441.56
2023-03-24T00:20:12.282Z,100438.03
2023-03-24T00:23:15.758Z,100442.53
2023-03-24T00:26:20.186Z,100431.88
2023-03-24T00:29:23.217Z,100437.19
2023-03-24T00:32:27.380Z,100429.22
2023-03-24T00:35:30.621Z,100426.53
2023-03-24T00:38:36.298Z,100420.34
2023-03-24T00:41:40.801Z,100404.34
2023-03-24T00:44:44.831Z,100396.47
2023-03-24T00:47:49.972Z,100392.84
2023-03-24T00:50:53.751Z,100392.06
2023-03-24T00:53:58.152Z,100384.06
2023-03-24T00:57:03.151Z,100377.88
2023-03-24T01:00:13.383Z,100382.38
2023-03-24T01:03:17.533Z,100376.16
2023-03-24T01:06:22.479Z,100380.63
2023-03-24T01:09:26.181Z,100378.94
2023-03-24T01:12:32.935Z,100378.06
2023-03-24T01:15:36.637Z,100376.28
2023-03-24T01:18:40.834Z,100370.94
2023-03-24T01:21:44.070Z,100377.09
2023-03-24T01:24:47.275Z,100367.41
2023-03-24T01:27:53.552Z,100357.63
2023-03-24T01:30:56.752Z,100352.28
2023-03-24T01:33:59.790Z,100347.88
2023-03-24T01:37:03.366Z,100340.84
2023-03-24T01:40:09.002Z,100325.81
2023-03-24T01:43:20.027Z,100330.16
2023-03-24T01:46:26.676Z,100321.41
2023-03-24T01:49:34.425Z,100319.72
2023-03-24T01:52:38.303Z,100317.06
2023-03-24T01:55:41.621Z,100301.16
2023-03-24T01:58:51.982Z,100302.00
2023-03-24T02:02:06.673Z,100291.44
2023-03-24T02:05:19.625Z,100284.31
2023-03-24T02:08:29.268Z,100266.53
2023-03-24T02:11:35.072Z,100255.88
2023-03-24T02:14:42.463Z,100243.38
2023-03-24T02:17:57.868Z,100229.13
2023-03-24T02:21:36.053Z,100221.13
2023-03-24T02:25:29.747Z,100228.16
2023-03-24T02:28:43.285Z,100222.00
2023-03-24T02:32:10.422Z,100213.91
2023-03-24T02:35:47.460Z,100222.00
2023-03-24T02:39:30.030Z,100208.69
2023-03-24T02:42:45.026Z,100210.47
2023-03-24T02:45:59.505Z,100200.69
2023-03-24T02:49:19.199Z,100198.97
2023-03-24T02:52:30.485Z,100195.44
2023-03-24T02:55:41.813Z,100203.41
2023-03-24T02:58:50.798Z,100178.69
2023-03-24T03:02:01.645Z,100168.03
2023-03-24T03:05:20.396Z,100162.69
2023-03-24T03:08:25.827Z,100150.34
2023-03-24T03:11:30.549Z,100151.22
2023-03-24T03:14:39.406Z,100150.25
2023-03-24T03:17:49.124Z,100152.91
2023-03-24T03:20:58.366Z,100149.38
2023-03-24T03:24:05.989Z,100151.22
2023-03-24T03:27:14.862Z,100145.88
2023-03-24T03:30:22.876Z,100152.03
2023-03-24T03:33:31.645Z,100147.69
2023-03-24T03:36:41.140Z,100147.75
2023-03-24T03:39:49.288Z,100136.25
2023-03-24T03:42:54.077Z,100138.94
2023-03-24T03:45:57.856Z,100129.22
2023-03-24T03:49:09.002Z,100129.97
2023-03-24T03:52:12.164Z,100123.69
2023-03-24T03:55:15.785Z,100126.38
2023-03-24T03:58:21.200Z,100122.72
2023-03-24T04:01:37.201Z,100120.00
2023-03-24T04:05:18.103Z,100113.81
2023-03-24T04:08:40.077Z,100111.16
2023-03-24T04:12:22.678Z,100111.91
2023-03-24T04:16:11.726Z,100103.91
2023-03-24T04:19:46.992Z,100093.25
2023-03-24T04:23:03.628Z,100089.72
2023-03-24T04:26:17.547Z,100084.28
2023-03-24T04:29:33.779Z,100086.03
2023-03-24T04:32:46.480Z,100076.31
2023-03-24T04:35:58.269Z,100064.72
2023-03-24T04:39:16.269Z,100063.75
2023-03-24T04:42:31.771Z,100062.81
2023-03-24T04:45:37.370Z,100044.25
2023-03-24T04:49:05.064Z,100034.44
2023-03-24T04:52:12.981Z,100045.09
2023-03-24T04:55:33.735Z,100033.59
2023-03-24T04:58:37.474Z,100029.09
2023-03-24T05:01:40.800Z,100021.13
2023-03-24T05:05:00.346Z,100024.75
2023-03-24T05:08:19.563Z,100012.28
2023-03-24T05:11:23.292Z,100005.13
2023-03-24T05:14:36.535Z,100012.28
2023-03-24T05:17:41.676Z,100010.47
2023-03-24T05:20:46.356Z,100010.47
2023-03-24T05:23:54.742Z,99998.88
2023-03-24T05:26:57.937Z,100003.31
2023-03-24T05:30:01.189Z,100000.66
2023-03-24T05:33:08.696Z,100002.47
2023-03-24T05:36:13.917Z,100005.13
2023-03-24T05:39:19.014Z,100000.78
2023-03-24T05:42:34.527Z,99987.56
2023-03-24T05:45:40.828Z,99995.44
2023-03-24T05:48:45.212Z,99985.72
2023-03-24T05:51:52.077Z,99984.78
2023-03-24T05:54:55.049Z,99988.38
2023-03-24T05:58:03.628Z,99988.38
2023-03-24T06:01:13.676Z,99982.13
2023-03-24T06:04:16.718Z,99975.00
2023-03-24T06:07:22.160Z,99981.16
2023-03-24T06:10:26.343Z,99971.47
2023-03-24T06:16:49.997Z,99972.31
2023-03-24T06:19:54.676Z,99968.81
2023-03-24T06:23:17.456Z,99968.81
2023-03-24T06:26:33.028Z,99962.72
2023-03-24T06:29:38.503Z,99948.53
2023-03-24T06:32:43.503Z,99946.84
2023-03-24T06:35:46.786Z,99961.00
2023-03-24T06:38:54.178Z,99974.31
2023-03-24T06:41:57.800Z,99953.00
2023-03-24T06:45:01.161Z,99950.25
2023-03-24T06:48:04.399Z,99947.50
2023-03-24T06:51:08.382Z,99937.78
2023-03-24T06:54:12.821Z,99948.34
2023-03-24T06:57:16.260Z,99939.50
2023-03-24T07:00:38.089Z,99936.84
2023-03-24T07:04:01.325Z,99937.69
2023-03-24T07:07:41.416Z,99929.78
2023-03-24T07:10:58.199Z,99932.38
2023-03-24T07:14:01.191Z,99923.50
2023-03-24T07:17:05.680Z,99921.72
2023-03-24T07:20:09.560Z,99921.72
2023-03-24T07:23:18.126Z,99907.41
2023-03-24T07:26:40.309Z,99903.88
2023-03-24T07:29:58.835Z,99906.56
2023-03-24T07:33:12.634Z,99899.34
2023-03-24T07:36:17.853Z,99893.16
2023-03-24T07:39:21.336Z,99902.97
2023-03-24T07:42:26.113Z,99894.97
2023-03-24T07:45:49.228Z,99890.50
2023-03-24T07:48:52.520Z,99873.66
2023-03-24T07:51:56.139Z,99873.66
2023-03-24T07:55:11.947Z,99867.38
2023-03-24T07:58:28.981Z,99875.25
2023-03-24T08:01:52.614Z,99861.94
2023-03-24T08:05:07.980Z,99861.84
2023-03-24T08:08:24.541Z,99877.72
2023-03-24T08:11:27.648Z,99877.63
2023-03-24T08:14:32.285Z,99868.66
2023-03-24T08:17:35.340Z,99879.31
2023-03-24T08:20:38.245Z,99865.66
2023-03-24T08:23:41.407Z,99859.00
2023-03-24T08:26:46.591Z,99872.84
2023-03-24T08:29:51.217Z,99881.13
2023-03-24T08:32:55.996Z,99884.94
2023-03-24T08:36:00.765Z,99867.16
2023-03-24T08:39:06.347Z,99877.59
2023-03-24T08:42:09.515Z,99875.63
2023-03-24T08:45:14.027Z,99882.44
2023-03-24T08:48:16.977Z,99873.31
2023-03-24T08:51:20.000Z,99874.91
2023-03-24T08:54:23.948Z,99868.63
2023-03-24T08:57:26.889Z,99852.34
2023-03-24T09:00:31.495Z,99859.38
2023-03-24T09:03:36.018Z,99853.09
2023-03-24T09:06:39.004Z,99853.09
2023-03-24T09:09:41.882Z,99860.13
2023-03-24T09:12:45.576Z,99850.41
2023-03-24T09:15:52.309Z,99859.16
2023-03-24T09:18:55.722Z,99840.50
2023-03-24T09:21:58.825Z,99858.22
2023-03-24T09:25:01.793Z,99863.44
2023-03-24T09:28:06.185Z,99866.97
2023-03-24T09:31:10.618Z,99878.47
2023-03-24T09:34:13.521Z,99874.00
2023-03-24T09:37:16.369Z,99872.19
2023-03-24T09:40:22.164Z,99873.13
2023-03-24T09:43:32.030Z,99885.63
2023-03-24T09:46:40.270Z,99882.00
2023-03-24T09:49:44.730Z,99898.09
2023-03-24T09:52:50.727Z,99900.63
2023-03-24T09:55:53.986Z,99887.44
2023-03-24T09:59:04.397Z,99885.63
2023-03-24T10:02:14.101Z,99900.63
2023-03-24T10:05:19.349Z,99891.69
2023-03-24T10:08:30.684Z,99883.72
2023-03-24T10:11:43.353Z,99886.38
2023-03-24T10:14:59.428Z,99883.59
2023-03-24T10:18:28.259Z,99883.59
2023-03-24T10:21:35.935Z,99886.16
2023-03-24T10:24:48.270Z,99891.50
2023-03-24T10:27:57.221Z,99880.00
2023-03-24T10:31:04.083Z,99880.81
2023-03-24T10:34:12.325Z,99875.50
2023-03-24T10:37:17.520Z,99890.66
2023-03-24T10:40:23.733Z,99880.81
2023-03-24T10:43:27.996Z,99872.84
2023-03-24T10:46:32.796Z,99892.34
2023-03-24T10:49:38.078Z,99887.88
2023-03-24T10:52:42.745Z,99883.31
2023-03-24T10:55:46.372Z,99882.44
2023-03-24T10:58:49.511Z,99880.63
2023-03-24T11:01:57.561Z,99884.16
2023-03-24T11:05:03.673Z,99888.63
2023-03-24T11:08:28.634Z,99898.31
2023-03-24T11:11:33.090Z,99896.63
2023-03-24T11:14:45.881Z,99896.63
2023-03-24T11:17:54.161Z,99912.63
2023-03-24T11:21:04.125Z,99915.16
2023-03-24T11:24:12.721Z,99903.66
2023-03-24T11:27:18.503Z,99905.47
2023-03-24T11:30:21.603Z,99894.81
2023-03-24T11:33:35.075Z,99923.28
2023-03-24T11:36:47.760Z,99938.28
2023-03-24T11:40:15.771Z,99924.97
2023-03-24T11:43:22.353Z,99934.78
2023-03-24T11:46:26.595Z,99924.22
2023-03-24T11:49:32.904Z,99916.22
2023-03-24T11:52:42.028Z,99918.06
2023-03-24T11:55:53.697Z,99915.47
2023-03-24T11:59:04.086Z,99921.66
2023-03-24T12:02:16.826Z,99912.81
2023-03-24T12:05:31.118Z,99928.78
2023-03-24T12:08:47.978Z,99937.66
2023-03-24T12:12:08.456Z,99945.75
2023-03-24T12:15:28.765Z,99943.09
2023-03-24T12:18:52.741Z,99945.75
2023-03-24T12:22:03.819Z,99925.31
2023-03-24T12:25:39.252Z,99916.44
2023-03-24T12:28:53.532Z,99928.03
2023-03-24T12:32:48.243Z,99917.38
2023-03-24T12:36:02.617Z,99925.38
2023-03-24T12:39:11.112Z,99941.34
2023-03-24T12:42:17.483Z,99941.34
2023-03-24T12:45:32.381Z,99952.88
2023-03-24T12:49:02.734Z,99945.81
2023-03-24T12:52:17.880Z,99944.13
2023-03-24T12:55:27.032Z,99959.25
2023-03-24T12:58:41.505Z,99952.13
2023-03-24T13:01:47.978Z,99960.97
2023-03-24T13:04:55.423Z,99965.34
2023-03-24T13:08:03.702Z,99959.06
2023-03-24T13:11:16.878Z,99948.41
2023-03-24T13:14:35.463Z,99933.28
2023-03-24T13:17:45.349Z,99946.50
2023-03-24T13:20:54.305Z,99949.16
2023-03-24T13:24:00.425Z,99958.03
2023-03-24T13:27:10.390Z,99965.91
2023-03-24T13:30:31.309Z,99963.25
2023-03-24T13:33:38.800Z,99954.28
2023-03-24T13:36:48.478Z,99973.81
2023-03-24T13:39:56.934Z,99991.50
2023-03-24T13:43:01.716Z,99984.34
2023-03-24T13:46:10.735Z,99984.28
2023-03-24T13:49:16.213Z,99982.44
2023-03-24T13:52:28.921Z,99987.69
2023-03-24T13:55:37.694Z,99976.16
2023-03-24T13:59:09.352Z,99996.63
2023-03-24T14:02:41.220Z,99997.50
2023-03-24T14:05:59.763Z,100029.47
2023-03-24T14:09:06.730Z,100033.94
2023-03-24T14:12:18.655Z,100027.75
2023-03-24T14:15:22.661Z,100033.06
2023-03-24T14:18:51.237Z,100057.06
2023-03-24T14:21:59.318Z,100057.94
2023-03-24T14:25:04.485Z,100027.75
2023-03-24T14:28:28.883Z,100025.09
2023-03-24T14:31:34.532Z,100043.75
2023-03-24T14:34:39.024Z,100043.75
2023-03-24T14:37:50.700Z,100033.19
2023-03-24T14:40:58.018Z,100035.00
2023-03-24T14:44:01.982Z,100020.91
2023-03-24T14:47:05.256Z,100006.00
2023-03-24T14:50:19.443Z,99941.34
2023-03-24T14:53:24.501Z,99941.56
2023-03-24T14:56:33.117Z,99934.63
2023-03-24T14:59:46.587Z,99906.38
2023-03-24T15:02:51.919Z,99965.09
2023-03-24T15:06:05.338Z,99957.97
2023-03-24T15:09:10.951Z,99975.75
2023-03-24T15:12:13.930Z,99981.94
2023-03-24T15:15:18.690Z,99986.31
2023-03-24T15:18:22.454Z,99978.31
2023-03-24T15:21:29.455Z,99982.59
2023-03-24T15:24:41.866Z,99997.72
2023-03-24T15:27:51.766Z,100000.38
2023-03-24T15:30:56.340Z,100006.56
2023-03-24T15:34:25.076Z,100015.44
2023-03-24T15:37:35.719Z,100020.81
2023-03-24T15:40:41.939Z,100014.56
2023-03-24T15:43:49.183Z,100027.88
2023-03-24T15:46:56.230Z,100013.69
2023-03-24T15:50:01.366Z,100021.81
2023-03-24T15:53:08.476Z,100027.03
2023-03-24T15:56:19.910Z,100027.03
2023-03-24T15:59:22.938Z,100030.56
2023-03-24T16:02:32.260Z,100023.41
2023-03-24T16:05:36.071Z,100018.09
2023-03-24T16:08:43.426Z,100020.00
2023-03-24T16:11:46.355Z,100043.97
2023-03-24T16:14:49.358Z,100044.91
2023-03-24T16:17:52.522Z,100052.91
2023-03-24T16:20:55.633Z,100052.91
2023-03-24T16:24:00.685Z,100051.22
2023-03-24T16:27:03.640Z,100051.22
2023-03-24T16:30:18.670Z,100048.53
2023-03-24T16:33:22.504Z,100044.16
2023-03-24T16:36:26.597Z,100051.22
2023-03-24T16:39:32.393Z,100047.69
2023-03-24T16:42:35.608Z,100049.47
2023-03-24T16:45:38.655Z,100055.75
2023-03-24T16:48:41.973Z,100061.06
2023-03-24T16:51:45.148Z,100063.75
2023-03-24T16:54:50.573Z,100067.38
2023-03-24T16:57:53.531Z,100064.72
2023-03-24T17:00:58.885Z,100059.38
2023-03-24T17:04:03.904Z,100070.03
2023-03-24T17:07:06.831Z,100075.38
2023-03-24T17:10:11.746Z,100074.59
2023-03-24T17:13:19.514Z,100078.97
2023-03-24T17:16:22.867Z,100085.25
2023-03-24T17:19:25.947Z,100103.72
2023-03-24T17:22:29.035Z,100100.22
2023-03-24T17:25:33.410Z,100115.22
2023-03-24T17:28:36.417Z,100102.88
2023-03-24T17:31:39.403Z,100105.59
2023-03-24T17:34:43.319Z,100118.94
2023-03-24T17:37:48.023Z,100110.94
2023-03-24T17:40:59.944Z,100107.44
2023-03-24T17:44:02.878Z,100119.78
2023-03-24T17:47:07.150Z,100127.88
2023-03-24T17:50:11.419Z,100126.09
2023-03-24T17:53:14.379Z,100121.69
2023-03-24T17:56:18.798Z,100124.25
2023-03-24T17:59:22.064Z,100126.91
2023-03-24T18:02:25.221Z,100136.66
2023-03-24T18:05:28.285Z,100139.31
2023-03-24T18:08:31.262Z,100135.69
2023-03-24T18:11:35.873Z,100126.91
2023-03-24T18:14:38.925Z,100143.66
2023-03-24T18:17:41.977Z,100143.88
2023-03-24T18:20:44.828Z,100148.25
2023-03-24T18:23:48.627Z,100136.75
2023-03-24T18:26:53.040Z,100144.63
2023-03-24T18:29:56.034Z,100138.53
2023-03-24T18:33:01.226Z,100141.22
2023-03-24T18:36:05.616Z,100145.56
2023-03-24T18:39:10.814Z,100148.25
2023-03-24T18:42:15.384Z,100155.28
2023-03-24T18:45:18.600Z,100154.31
2023-03-24T18:48:21.488Z,100149.00
2023-03-24T18:51:26.208Z,100149.00
2023-03-24T18:54:29.135Z,100151.66
2023-03-24T18:57:34.394Z,100157.00
2023-03-24T19:00:37.276Z,100157.00
2023-03-24T19:03:42.187Z,100149.97
2023-03-24T19:06:45.410Z,100161.50
2023-03-24T19:09:48.396Z,100161.50
2023-03-24T19:12:52.637Z,100159.66
2023-03-24T19:15:56.067Z,100162.31
2023-03-24T19:19:00.222Z,100167.66
2023-03-24T19:22:05.251Z,100174.72
2023-03-24T19:25:09.440Z,100172.91
2023-03-24T19:28:14.794Z,100179.09
2023-03-24T19:31:19.679Z,100188.78
2023-03-24T19:34:22.868Z,100194.13
2023-03-24T19:37:26.974Z,100188.78
2023-03-24T19:40:30.211Z,100182.59
2023-03-24T19:43:35.866Z,100186.22
2023-03-24T19:46:38.967Z,100180.91
2023-03-24T19:49:42.028Z,100181.75
2023-03-24T19:52:46.103Z,100191.56
2023-03-24T19:55:49.706Z,100193.34
2023-03-24T19:58:54.395Z,100187.09
2023-03-24T20:01:57.608Z,100176.44
2023-03-24T20:05:00.585Z,100178.22
2023-03-24T20:08:03.647Z,100170.13
2023-03-24T20:11:11.298Z,100166.53
2023-03-24T20:14:16.951Z,100167.47
2023-03-24T20:17:21.679Z,100173.66
2023-03-24T20:20:24.685Z,100182.59
2023-03-24T20:23:27.620Z,100171.09
2023-03-24T20:26:31.141Z,100168.44
2023-03-24T20:29:35.735Z,100160.44
2023-03-24T20:32:39.118Z,100164.06
2023-03-24T20:35:42.688Z,100164.06
2023-03-24T20:38:45.853Z,100165.84
2023-03-24T20:41:48.810Z,100159.66
2023-03-24T20:44:53.160Z,100158.72
2023-03-24T20:47:56.197Z,100164.06
2023-03-24T20:50:59.836Z,100173.78
2023-03-24T20:54:02.755Z,100167.47
2023-03-24T20:57:06.403Z,100175.47
2023-03-24T21:00:14.322Z,100163.13
2023-03-24T21:03:17.525Z,100171.09
2023-03-24T21:06:21.217Z,100170.25
2023-03-24T21:09:24.610Z,100173.78
2023-03-24T21:12:27.620Z,100174.72
2023-03-24T21:15:32.169Z,100180.03
2023-03-24T21:18:35.154Z,100184.50
2023-03-24T21:21:39.078Z,100186.31
2023-03-24T21:24:42.111Z,100177.47
2023-03-24T21:27:45.555Z,100178.31
2023-03-24T21:30:50.867Z,100179.16
2023-03-24T21:33:54.672Z,100180.03
2023-03-24T21:37:01.250Z,100185.38
2023-03-24T21:40:06.470Z,100189.81
2023-03-24T21:43:09.517Z,100197.75
2023-03-24T21:46:20.454Z,100188.97
2023-03-24T21:49:23.814Z,100192.59
2023-03-24T21:52:28.839Z,100185.53
2023-03-24T21:55:32.297Z,100196.19
2023-03-24T21:58:35.652Z,100194.50
2023-03-24T22:01:40.611Z,100195.44
2023-03-24T22:04:43.664Z,100197.16
2023-03-24T22:07:47.052Z,100196.28
2023-03-24T22:10:50.225Z,100190.88
2023-03-24T22:13:53.221Z,100192.59
2023-03-24T22:16:57.681Z,100189.81
2023-03-24T22:20:00.741Z,100189.81
2023-03-24T22:23:03.705Z,100192.50
2023-03-24T22:26:08.426Z,100199.56
2023-03-24T22:29:11.711Z,100191.56
2023-03-24T22:32:16.300Z,100196.78
2023-03-24T22:35:21.317Z,100202.13
2023-03-24T22:38:24.527Z,100203.09
2023-03-24T22:41:27.582Z,100210.09
2023-03-24T22:44:32.252Z,100204.78
2023-03-24T22:47:36.644Z,100193.25
2023-03-24T22:50:41.814Z,100196.78
2023-03-24T22:53:45.764Z,100187.94
2023-03-24T22:56:48.919Z,100183.47
2023-03-24T22:59:52.002Z,100181.66
2023-03-24T23:02:56.390Z,100182.53
2023-03-24T23:06:01.801Z,100174.53
2023-03-24T23:09:05.974Z,100169.22
2023-03-24T23:12:09.250Z,100169.28
2023-03-24T23:15:17.862Z,100171.94
2023-03-24T23:18:22.285Z,100171.09
2023-03-24T23:21:25.219Z,100160.44
2023-03-24T23:24:28.708Z,100164.91
2023-03-24T23:27:34.789Z,100164.06
2023-03-24T23:30:38.182Z,100163.19
2023-03-24T23:33:43.065Z,100166.72
2023-03-24T23:36:49.881Z,100170.31
2023-03-24T23:39:52.867Z,100169.38
2023-03-24T23:42:56.006Z,100171.19
2023-03-24T23:45:59.458Z,100165.78
2023-03-24T23:49:03.786Z,100164.06
2023-03-24T23:52:06.909Z,100164.06
2023-03-24T23:55:11.404Z,100164.06
2023-03-24T23:58:14.478Z,100164.97
